Terminal Aerodrome Forecast
Issued by NWS

Home | Current Version | Previous Version | Text Only | Print | Product List | Glossary On
Versions: 1 2 3 4 5 6 7 8 9 10 11 12 13 14 15 16 17 18 19 20 21 22 23 24 25 26 27 28 29 30 31
000
FTUS42 KGSP 152300 RRA
TAFGMU
TAF
KGMU 152341Z 1600/1624 17004KT P6SM OVC015
      TEMPO 1600/1602 6SM -SHRA BR OVC015
     FM160500 23003KT P6SM BKN009
     FM161100 28003KT 4SM BR BKN006
     FM161300 33003KT P6SM SCT023
     FM161900 28003KT P6SM BKN050 PROB30 1619/1624 4SM TSRA
      BKN040CB=

USA.gov is the U.S. government's official web portal to all federal, state and local government web resources and services.